createdAt,value
2018-01-27T00:01:43.905Z,155.97
2018-01-27T00:04:11.468Z,220.93
2018-01-27T00:06:39.060Z,231.30
2018-01-27T00:09:07.452Z,323.20
2018-01-27T00:11:35.044Z,305.17
2018-01-27T00:14:03.371Z,211.07
2018-01-27T00:16:30.937Z,258.83
2018-01-27T00:18:58.485Z,313.53
2018-01-27T00:21:26.821Z,343.40
2018-01-27T00:23:54.351Z,313.37
2018-01-27T00:26:21.956Z,341.43
2018-01-27T00:28:49.508Z,308.40
2018-01-27T00:31:17.064Z,216.40
2018-01-27T00:33:44.607Z,375.30
2018-01-27T00:36:12.186Z,198.90
2018-01-27T00:38:39.702Z,279.30
2018-01-27T00:41:07.249Z,333.60
2018-01-27T00:43:34.788Z,313.50
2018-01-27T00:46:02.317Z,174.43
2018-01-27T00:48:29.960Z,187.23
2018-01-27T00:50:57.493Z,143.67
2018-01-27T00:53:25.066Z,205.57
2018-01-27T00:55:52.605Z,233.83
2018-01-27T00:58:20.204Z,173.20
2018-01-27T01:00:47.771Z,142.47
2018-01-27T01:03:15.363Z,133.00
2018-01-27T01:05:43.669Z,109.93
2018-01-27T01:08:11.205Z,132.23
2018-01-27T01:10:39.528Z,171.53
2018-01-27T01:13:07.077Z,154.83
2018-01-27T01:15:34.654Z,173.17
2018-01-27T01:18:02.191Z,146.07
2018-01-27T01:20:29.782Z,119.03
2018-01-27T01:22:57.318Z,165.87
2018-01-27T01:25:24.882Z,188.23
2018-01-27T01:27:52.421Z,192.30
2018-01-27T01:30:19.999Z,127.43
2018-01-27T01:32:47.539Z,99.80
2018-01-27T01:35:15.112Z,87.90
2018-01-27T01:37:42.668Z,96.90
2018-01-27T01:40:10.222Z,88.90
2018-01-27T01:42:43.379Z,87.87
2018-01-27T01:45:11.666Z,85.33
2018-01-27T01:47:39.216Z,90.83
2018-01-27T01:50:07.520Z,94.43
2018-01-27T01:52:35.916Z,91.07
2018-01-27T01:55:03.442Z,79.93
2018-01-27T01:57:31.024Z,88.63
2018-01-27T01:59:58.552Z,83.23
2018-01-27T02:02:26.113Z,83.87
2018-01-27T02:04:53.652Z,85.53
2018-01-27T02:07:22.168Z,83.20
2018-01-27T02:09:49.703Z,78.67
2018-01-27T02:12:17.256Z,74.73
2018-01-27T02:14:44.779Z,81.03
2018-01-27T02:17:12.320Z,86.30
2018-01-27T02:19:39.866Z,77.70
2018-01-27T02:22:07.456Z,74.63
2018-01-27T02:24:34.995Z,71.97
2018-01-27T02:27:02.568Z,89.63
2018-01-27T02:29:30.133Z,92.10
2018-01-27T02:31:57.681Z,83.87
2018-01-27T02:34:25.249Z,88.90
2018-01-27T02:36:52.782Z,79.00
2018-01-27T02:39:20.409Z,74.87
2018-01-27T02:41:47.939Z,81.83
2018-01-27T02:44:15.489Z,82.63
2018-01-27T02:46:43.023Z,78.67
2018-01-27T02:49:10.572Z,77.60
2018-01-27T02:51:38.126Z,76.17
2018-01-27T02:54:05.688Z,79.23
2018-01-27T02:56:33.234Z,81.57
2018-01-27T02:59:00.778Z,70.10
2018-01-27T03:01:28.306Z,68.77
2018-01-27T03:03:55.860Z,75.57
2018-01-27T03:06:24.186Z,74.17
2018-01-27T03:08:51.733Z,82.43
2018-01-27T03:11:19.280Z,79.90
2018-01-27T03:13:46.818Z,83.33
2018-01-27T03:16:14.388Z,93.67
2018-01-27T03:18:41.937Z,96.03
2018-01-27T03:21:09.493Z,89.70
2018-01-27T03:23:37.024Z,97.33
2018-01-27T03:26:04.585Z,84.43
2018-01-27T03:28:32.110Z,85.27
2018-01-27T03:30:59.657Z,88.60
2018-01-27T03:33:27.188Z,86.23
2018-01-27T03:35:54.760Z,82.37
2018-01-27T03:38:22.284Z,87.13
2018-01-27T03:40:49.855Z,94.63
2018-01-27T03:43:17.394Z,103.17
2018-01-27T03:45:44.944Z,89.13
2018-01-27T03:48:12.471Z,86.57
2018-01-27T03:50:40.029Z,95.20
2018-01-27T03:53:07.569Z,87.67
2018-01-27T03:55:35.135Z,101.20
2018-01-27T03:58:02.677Z,89.07
2018-01-27T04:00:30.252Z,72.70
2018-01-27T04:02:57.800Z,92.67
2018-01-27T04:05:25.373Z,82.23
2018-01-27T04:07:52.910Z,100.63
2018-01-27T04:10:20.481Z,90.13
2018-01-27T04:12:48.861Z,100.33
2018-01-27T04:15:16.417Z,93.97
2018-01-27T04:17:44.711Z,87.07
2018-01-27T04:20:12.271Z,91.60
2018-01-27T04:22:39.803Z,100.37
2018-01-27T04:25:08.101Z,90.00
2018-01-27T04:27:35.651Z,96.00
2018-01-27T04:30:03.190Z,109.73
2018-01-27T04:32:30.748Z,88.00
2018-01-27T04:34:58.279Z,94.43
2018-01-27T04:37:25.862Z,88.50
2018-01-27T04:39:53.385Z,91.77
2018-01-27T04:42:20.952Z,90.97
2018-01-27T04:44:48.485Z,89.40
2018-01-27T04:47:16.050Z,98.70
2018-01-27T04:49:43.580Z,89.47
2018-01-27T04:52:11.151Z,87.50
2018-01-27T04:54:38.691Z,90.97
2018-01-27T04:57:06.276Z,80.93
2018-01-27T04:59:33.805Z,88.60
2018-01-27T05:02:02.133Z,75.57
2018-01-27T05:04:29.672Z,79.33
2018-01-27T05:06:57.996Z,72.93
2018-01-27T05:09:25.535Z,74.33
2018-01-27T05:11:53.087Z,76.87
2018-01-27T05:14:20.629Z,68.57
2018-01-27T05:16:48.185Z,75.27
2018-01-27T05:19:15.718Z,78.97
2018-01-27T05:21:43.273Z,82.63
2018-01-27T05:24:10.813Z,87.73
2018-01-27T05:26:38.380Z,76.67
2018-01-27T05:29:06.682Z,74.63
2018-01-27T05:31:34.242Z,73.33
2018-01-27T05:34:01.782Z,72.70
2018-01-27T05:36:30.103Z,67.50
2018-01-27T05:38:57.653Z,70.97
2018-01-27T05:41:25.201Z,75.17
2018-01-27T05:43:52.741Z,71.17
2018-01-27T05:46:20.303Z,69.07
2018-01-27T05:48:47.833Z,69.77
2018-01-27T05:51:15.399Z,62.17
2018-01-27T05:53:43.687Z,70.13
2018-01-27T05:56:11.253Z,74.23
2018-01-27T05:58:38.789Z,72.87
2018-01-27T06:01:07.106Z,73.13
2018-01-27T06:03:34.645Z,68.17
2018-01-27T06:06:02.212Z,64.80
2018-01-27T06:08:29.757Z,83.23
2018-01-27T06:10:57.315Z,68.70
2018-01-27T06:13:24.848Z,79.63
2018-01-27T06:15:52.417Z,78.20
2018-01-27T06:18:20.706Z,64.77
2018-01-27T06:20:48.261Z,78.07
2018-01-27T06:23:16.566Z,68.50
2018-01-27T06:25:44.112Z,67.93
2018-01-27T06:28:11.677Z,64.03
2018-01-27T06:30:39.209Z,67.23
2018-01-27T06:33:06.764Z,62.90
2018-01-27T06:35:35.083Z,68.83
2018-01-27T06:38:02.638Z,67.73
2018-01-27T06:40:30.177Z,69.47
2018-01-27T06:42:57.715Z,66.87
2018-01-27T06:45:26.018Z,71.40
2018-01-27T06:47:53.596Z,76.73
2018-01-27T06:50:21.129Z,62.50
2018-01-27T06:52:48.705Z,60.67
2018-01-27T06:55:16.238Z,66.03
2018-01-27T06:57:44.557Z,56.87
2018-01-27T07:00:12.084Z,62.50
2018-01-27T07:02:39.638Z,56.50
2018-01-27T07:05:07.164Z,64.33
2018-01-27T07:07:34.742Z,60.03
2018-01-27T07:10:03.045Z,53.93
2018-01-27T07:12:30.621Z,64.57
2018-01-27T07:14:58.148Z,60.13
2018-01-27T07:17:25.687Z,64.57
2018-01-27T07:19:54.011Z,64.33
2018-01-27T07:22:21.586Z,64.27
2018-01-27T07:24:49.113Z,66.37
2018-01-27T07:27:16.653Z,67.93
2018-01-27T07:29:44.203Z,63.30
2018-01-27T07:32:12.502Z,62.43
2018-01-27T07:34:40.044Z,56.37
2018-01-27T07:37:07.583Z,61.40
2018-01-27T07:39:35.132Z,56.47
2018-01-27T07:42:02.669Z,53.33
2018-01-27T07:44:30.217Z,58.13
2018-01-27T07:46:57.749Z,66.13
2018-01-27T07:49:25.317Z,58.13
2018-01-27T07:51:52.837Z,58.37
2018-01-27T07:54:21.125Z,64.97
2018-01-27T07:56:48.684Z,57.17
2018-01-27T07:59:16.981Z,70.07
2018-01-27T08:01:44.544Z,68.33
2018-01-27T08:04:12.084Z,63.30
2018-01-27T08:06:39.696Z,55.17
2018-01-27T08:09:07.232Z,57.17
2018-01-27T08:11:34.786Z,53.43
2018-01-27T08:14:02.316Z,54.67
2018-01-27T08:16:30.653Z,61.03
2018-01-27T08:18:58.176Z,59.57
2018-01-27T08:21:25.732Z,64.23
2018-01-27T08:23:53.260Z,61.60
2018-01-27T08:26:21.598Z,53.53
2018-01-27T08:28:49.128Z,67.83
2018-01-27T08:31:16.681Z,55.87
2018-01-27T08:33:44.208Z,58.90
2018-01-27T08:36:12.503Z,59.23
2018-01-27T08:38:40.044Z,53.70
2018-01-27T08:41:08.335Z,48.83
2018-01-27T08:43:35.896Z,58.83
2018-01-27T08:46:03.426Z,56.53
2018-01-27T08:48:30.990Z,52.37
2018-01-27T08:50:58.543Z,57.07
2018-01-27T08:53:26.867Z,49.17
2018-01-27T08:55:54.403Z,46.30
2018-01-27T08:58:21.958Z,52.67
2018-01-27T09:00:49.483Z,45.63
2018-01-27T09:03:17.043Z,57.07
2018-01-27T09:05:44.585Z,48.00
2018-01-27T09:08:12.142Z,49.23
2018-01-27T09:10:39.676Z,51.60
2018-01-27T09:13:07.240Z,46.27
2018-01-27T09:15:34.766Z,52.30
2018-01-27T09:18:02.299Z,46.60
2018-01-27T09:20:29.845Z,46.17
2018-01-27T09:22:57.386Z,47.90
2018-01-27T09:25:24.971Z,42.90
2018-01-27T09:27:52.505Z,47.77
2018-01-27T09:30:20.065Z,53.53
2018-01-27T09:32:47.608Z,43.93
2018-01-27T09:35:15.161Z,50.87
2018-01-27T09:37:42.693Z,54.80
2018-01-27T09:40:10.255Z,43.40
2018-01-27T09:42:37.785Z,51.50
2018-01-27T09:45:05.332Z,49.17
2018-01-27T09:47:32.865Z,45.60
2018-01-27T09:50:00.431Z,48.67
2018-01-27T09:52:28.018Z,48.73
2018-01-27T09:54:55.548Z,42.13
2018-01-27T09:57:23.105Z,45.07
2018-01-27T09:59:50.633Z,46.20
2018-01-27T10:02:18.193Z,43.67
2018-01-27T10:04:45.726Z,47.53
2018-01-27T10:07:14.049Z,42.50
2018-01-27T10:09:41.572Z,44.43
2018-01-27T10:12:09.124Z,34.50
2018-01-27T10:14:36.685Z,33.60
2018-01-27T10:17:05.005Z,36.53
2018-01-27T10:19:32.542Z,39.43
2018-01-27T10:22:00.084Z,33.87
2018-01-27T10:24:27.616Z,38.67
2018-01-27T10:26:55.189Z,34.67
2018-01-27T10:29:23.487Z,41.63
2018-01-27T10:31:51.040Z,42.77
2018-01-27T10:34:18.586Z,38.30
2018-01-27T10:36:46.913Z,35.40
2018-01-27T10:39:14.446Z,66.67
2018-01-27T10:41:41.977Z,40.40
2018-01-27T10:44:09.538Z,38.77
2018-01-27T10:46:37.835Z,35.17
2018-01-27T10:49:05.379Z,41.63
2018-01-27T10:51:32.923Z,44.93
2018-01-27T10:54:00.485Z,44.00
2018-01-27T10:56:28.908Z,43.17
2018-01-27T10:58:56.468Z,40.13
2018-01-27T11:01:24.006Z,38.23
2018-01-27T11:03:51.559Z,43.70
2018-01-27T11:06:21.050Z,36.13
2018-01-27T11:08:48.599Z,35.97
2018-01-27T11:11:16.887Z,41.87
2018-01-27T11:13:44.438Z,35.07
2018-01-27T11:16:12.732Z,40.07
2018-01-27T11:18:40.311Z,35.23
2018-01-27T11:21:07.841Z,38.30
2018-01-27T11:23:35.361Z,35.03
2018-01-27T11:26:02.913Z,31.60
2018-01-27T11:28:30.431Z,36.47
2018-01-27T11:30:57.980Z,35.97
2018-01-27T11:33:25.504Z,38.57
2018-01-27T11:35:53.057Z,33.40
2018-01-27T11:38:20.576Z,34.10
2018-01-27T11:40:48.880Z,34.83
2018-01-27T11:43:16.408Z,30.67
2018-01-27T11:45:43.952Z,32.50
2018-01-27T11:48:12.253Z,34.87
2018-01-27T11:50:39.801Z,30.30
2018-01-27T11:53:07.517Z,37.73
2018-01-27T11:55:35.836Z,33.17
2018-01-27T11:58:04.134Z,36.47
2018-01-27T12:00:31.679Z,36.80
2018-01-27T12:02:59.205Z,35.90
2018-01-27T12:05:26.756Z,29.77
2018-01-27T12:07:55.046Z,34.83
2018-01-27T12:10:22.601Z,35.57
2018-01-27T12:12:50.552Z,33.73
2018-01-27T12:15:18.857Z,32.77
2018-01-27T12:17:46.400Z,33.10
2018-01-27T12:20:13.938Z,33.30
2018-01-27T12:22:42.253Z,36.20
2018-01-27T12:25:09.776Z,35.10
2018-01-27T12:27:38.124Z,34.90
2018-01-27T12:30:05.657Z,33.50
2018-01-27T12:32:33.240Z,41.43
2018-01-27T12:35:00.776Z,33.37
2018-01-27T12:37:28.330Z,37.60
2018-01-27T12:39:55.882Z,40.23
2018-01-27T12:42:23.477Z,38.20
2018-01-27T12:44:51.013Z,38.80
2018-01-27T12:47:18.612Z,35.03
2018-01-27T12:49:46.249Z,35.67
2018-01-27T12:52:13.836Z,55.53
2018-01-27T12:54:42.158Z,48.80
2018-01-27T12:57:09.755Z,37.43
2018-01-27T12:59:37.314Z,38.67
2018-01-27T13:02:04.942Z,33.60
2018-01-27T13:04:32.516Z,39.83
2018-01-27T13:07:00.045Z,38.90
2018-01-27T13:09:27.610Z,41.07
2018-01-27T13:11:55.193Z,35.10
2018-01-27T13:14:22.757Z,37.37
2018-01-27T13:16:50.293Z,39.90
2018-01-27T13:19:17.839Z,41.20
2018-01-27T13:21:45.363Z,39.77
2018-01-27T13:24:13.736Z,39.40
2018-01-27T13:26:41.265Z,35.50
2018-01-27T13:29:08.889Z,44.13
2018-01-27T13:31:36.421Z,40.07
2018-01-27T13:34:04.791Z,39.60
2018-01-27T13:36:32.357Z,43.23
2018-01-27T13:39:00.692Z,41.90
2018-01-27T13:41:28.350Z,40.73
2018-01-27T13:43:55.876Z,37.80
2018-01-27T13:46:23.439Z,39.30
2018-01-27T13:48:51.004Z,45.87
2018-01-27T13:51:18.651Z,44.10
2018-01-27T13:53:46.172Z,47.47
2018-01-27T13:56:13.740Z,44.57
2018-01-27T13:58:41.310Z,43.83
2018-01-27T14:01:09.628Z,40.53
2018-01-27T14:03:37.157Z,41.67
2018-01-27T14:06:04.704Z,45.93
2018-01-27T14:08:32.223Z,42.77
2018-01-27T14:11:00.013Z,34.53
2018-01-27T14:13:28.355Z,43.70
2018-01-27T14:15:55.960Z,41.27
2018-01-27T14:18:23.497Z,39.27
2018-01-27T14:20:51.044Z,42.47
2018-01-27T14:23:18.596Z,39.20
2018-01-27T14:25:46.148Z,39.60
2018-01-27T14:28:13.708Z,38.20
2018-01-27T14:30:41.242Z,47.73
2018-01-27T14:33:08.845Z,44.97
2018-01-27T14:35:36.398Z,48.73
2018-01-27T14:38:03.983Z,46.50
2018-01-27T14:40:32.322Z,46.30
2018-01-27T14:42:59.899Z,45.07
2018-01-27T14:45:28.249Z,46.30
2018-01-27T14:47:55.794Z,47.30
2018-01-27T14:50:23.333Z,69.63
2018-01-27T14:52:50.890Z,62.83
2018-01-27T14:55:18.458Z,43.47
2018-01-27T14:57:46.017Z,47.00
2018-01-27T15:00:13.590Z,42.93
2018-01-27T15:02:41.909Z,49.47
2018-01-27T15:05:09.439Z,44.40
2018-01-27T15:07:37.010Z,44.27
2018-01-27T15:10:04.580Z,46.57
2018-01-27T15:12:32.104Z,46.00
2018-01-27T15:14:59.788Z,53.43
2018-01-27T15:17:27.309Z,47.63
2018-01-27T15:19:54.902Z,45.23
2018-01-27T15:22:22.495Z,47.83
2018-01-27T15:24:50.817Z,46.50
2018-01-27T15:27:18.395Z,37.03
2018-01-27T15:29:46.005Z,37.57
2018-01-27T15:32:13.535Z,43.70
2018-01-27T15:34:41.134Z,44.13
2018-01-27T15:37:08.659Z,47.10
2018-01-27T15:39:36.255Z,39.10
2018-01-27T15:42:03.776Z,41.30
2018-01-27T15:44:31.324Z,44.83
2018-01-27T15:46:58.848Z,44.43
2018-01-27T15:49:26.499Z,47.60
2018-01-27T15:51:54.064Z,41.47
2018-01-27T15:54:22.403Z,44.33
2018-01-27T15:56:50.698Z,48.57
2018-01-27T15:59:18.221Z,53.37
2018-01-27T16:01:45.823Z,50.33
2018-01-27T16:04:13.367Z,50.03
2018-01-27T16:06:40.925Z,50.77
2018-01-27T16:09:08.465Z,48.63
2018-01-27T16:11:36.772Z,48.13
2018-01-27T16:14:04.302Z,48.43
2018-01-27T16:16:31.885Z,43.87
2018-01-27T16:19:00.199Z,42.90
2018-01-27T16:21:27.756Z,43.17
2018-01-27T16:23:55.293Z,45.80
2018-01-27T16:26:22.846Z,47.53
2018-01-27T16:28:50.384Z,53.80
2018-01-27T16:31:17.932Z,49.90
2018-01-27T16:33:46.725Z,50.87
2018-01-27T16:36:15.089Z,46.03
2018-01-27T16:38:43.402Z,47.53
2018-01-27T16:41:11.040Z,49.30
2018-01-27T16:43:39.369Z,52.07
2018-01-27T16:46:06.996Z,45.33
2018-01-27T16:48:36.350Z,45.77
2018-01-27T16:51:03.893Z,54.30
2018-01-27T16:53:31.552Z,50.63
2018-01-27T16:55:59.177Z,47.63
2018-01-27T16:58:27.598Z,44.63
2018-01-27T17:00:55.149Z,41.77
2018-01-27T17:03:22.843Z,46.77
2018-01-27T17:05:51.224Z,50.07
2018-01-27T17:08:19.769Z,46.57
2018-01-27T17:10:47.440Z,48.07
2018-01-27T17:13:15.096Z,48.33
2018-01-27T17:15:42.937Z,52.50
2018-01-27T17:18:10.525Z,51.60
2018-01-27T17:20:38.109Z,47.10
2018-01-27T17:23:06.498Z,51.00
2018-01-27T17:25:34.106Z,53.20
2018-01-27T17:28:01.721Z,45.13
2018-01-27T17:30:30.031Z,48.93
2018-01-27T17:32:57.728Z,45.17
2018-01-27T17:35:25.310Z,51.73
2018-01-27T17:37:53.683Z,46.90
2018-01-27T17:40:22.097Z,50.63
2018-01-27T17:42:49.733Z,50.87
2018-01-27T17:45:18.055Z,51.03
2018-01-27T17:47:45.666Z,57.83
2018-01-27T17:50:14.030Z,47.53
2018-01-27T17:52:41.657Z,56.17
2018-01-27T17:55:09.258Z,60.07
2018-01-27T17:57:37.585Z,61.37
2018-01-27T18:00:05.111Z,56.63
2018-01-27T18:02:32.738Z,63.30
2018-01-27T18:05:00.292Z,71.43
2018-01-27T18:07:27.886Z,63.20
2018-01-27T18:09:56.171Z,70.13
2018-01-27T18:12:24.035Z,66.57
2018-01-27T18:14:51.616Z,66.17
2018-01-27T18:17:19.229Z,66.03
2018-01-27T18:19:47.587Z,77.63
2018-01-27T18:22:15.136Z,58.83
2018-01-27T18:24:43.089Z,62.47
2018-01-27T18:27:10.691Z,59.03
2018-01-27T18:29:38.954Z,59.10
2018-01-27T18:32:06.568Z,57.17
2018-01-27T18:34:34.120Z,63.63
2018-01-27T18:37:01.840Z,63.23
2018-01-27T18:39:29.368Z,79.00
2018-01-27T18:41:56.929Z,75.67
2018-01-27T18:44:24.456Z,61.77
2018-01-27T18:46:51.999Z,59.70
2018-01-27T18:49:19.599Z,53.90
2018-01-27T18:51:47.215Z,55.70
2018-01-27T18:54:15.569Z,59.80
2018-01-27T18:56:43.123Z,55.87
2018-01-27T18:59:10.707Z,55.17
2018-01-27T19:01:39.027Z,55.03
2018-01-27T19:04:06.599Z,62.70
2018-01-27T19:06:34.290Z,76.30
2018-01-27T19:09:02.649Z,79.83
2018-01-27T19:11:30.266Z,62.07
2018-01-27T19:13:57.849Z,75.60
2018-01-27T19:16:25.548Z,65.73
2018-01-27T19:18:53.096Z,74.67
2018-01-27T19:21:20.682Z,65.40
2018-01-27T19:23:49.063Z,65.90
2018-01-27T19:26:16.790Z,77.53
2018-01-27T19:28:44.391Z,72.77
2018-01-27T19:31:12.100Z,63.77
2018-01-27T19:33:40.946Z,76.60
2018-01-27T19:36:08.477Z,72.50
2018-01-27T19:38:36.079Z,76.90
2018-01-27T19:41:03.793Z,73.63
2018-01-27T19:43:31.607Z,72.27
2018-01-27T19:45:59.148Z,77.77
2018-01-27T19:48:26.705Z,81.47
2018-01-27T19:50:54.489Z,89.37
2018-01-27T19:53:22.073Z,86.13
2018-01-27T19:55:49.652Z,83.90
2018-01-27T19:58:18.195Z,84.60
2018-01-27T20:00:45.779Z,83.83
2018-01-27T20:03:13.749Z,75.97
2018-01-27T20:05:41.288Z,75.80
2018-01-27T20:08:08.927Z,87.47
2018-01-27T20:10:36.512Z,67.20
2018-01-27T20:13:04.236Z,68.57
2018-01-27T20:15:31.955Z,65.40
2018-01-27T20:17:59.614Z,74.53
2018-01-27T20:20:27.360Z,69.30
2018-01-27T20:22:54.943Z,71.47
2018-01-27T20:25:22.833Z,76.57
2018-01-27T20:27:51.191Z,76.37
2018-01-27T20:30:19.029Z,71.90
2018-01-27T20:32:46.645Z,73.60
2018-01-27T20:35:15.168Z,68.27
2018-01-27T20:37:42.743Z,80.33
2018-01-27T20:40:10.405Z,67.30
2018-01-27T20:42:37.928Z,82.87
2018-01-27T20:45:05.518Z,73.17
2018-01-27T20:47:33.216Z,65.10
2018-01-27T20:50:01.642Z,70.83
2018-01-27T20:52:29.228Z,67.67
2018-01-27T20:54:57.076Z,79.27
2018-01-27T20:57:24.660Z,68.70
2018-01-27T20:59:52.423Z,63.13
2018-01-27T21:02:20.005Z,75.73
2018-01-27T21:04:47.783Z,63.87
2018-01-27T21:07:15.399Z,81.30
2018-01-27T21:09:43.060Z,67.93
2018-01-27T21:12:10.673Z,65.40
2018-01-27T21:14:38.201Z,68.30
2018-01-27T21:17:06.562Z,70.63
2018-01-27T21:19:34.928Z,79.37
2018-01-27T21:22:02.560Z,72.53
2018-01-27T21:24:30.117Z,74.40
2018-01-27T21:26:57.840Z,73.87
2018-01-27T21:29:26.187Z,64.83
2018-01-27T21:31:53.875Z,67.37
2018-01-27T21:34:21.794Z,65.87
2018-01-27T21:36:49.591Z,71.53
2018-01-27T21:39:17.169Z,74.23
2018-01-27T21:41:45.539Z,75.67
2018-01-27T21:44:14.160Z,76.00
2018-01-27T21:46:41.904Z,72.27
2018-01-27T21:49:09.552Z,80.07
2018-01-27T21:51:37.908Z,77.70
2018-01-27T21:54:05.503Z,77.70
2018-01-27T21:56:33.868Z,65.23
2018-01-27T21:59:01.401Z,80.77
2018-01-27T22:01:29.039Z,94.83
2018-01-27T22:03:56.614Z,81.73
2018-01-27T22:06:24.233Z,81.97
2018-01-27T22:08:51.824Z,76.90
2018-01-27T22:11:19.443Z,85.60
2018-01-27T22:13:47.019Z,83.83
2018-01-27T22:16:14.893Z,80.60
2018-01-27T22:18:42.456Z,87.67
2018-01-27T22:21:10.030Z,85.30
2018-01-27T22:23:37.634Z,76.67
2018-01-27T22:26:05.223Z,80.90
2018-01-27T22:28:32.862Z,77.80
2018-01-27T22:31:01.200Z,85.77
2018-01-27T22:33:28.813Z,84.10
2018-01-27T22:35:56.398Z,83.60
2018-01-27T22:38:23.944Z,76.53
2018-01-27T22:40:51.482Z,79.33
2018-01-27T22:43:19.810Z,72.90
2018-01-27T22:45:47.434Z,70.40
2018-01-27T22:48:15.811Z,67.30
2018-01-27T22:50:43.394Z,82.00
2018-01-27T22:53:11.004Z,79.40
2018-01-27T22:55:39.359Z,80.10
2018-01-27T22:58:06.984Z,58.33
2018-01-27T23:00:34.570Z,62.13
2018-01-27T23:03:02.156Z,63.47
2018-01-27T23:05:30.540Z,72.53
2018-01-27T23:07:58.127Z,64.40
2018-01-27T23:10:25.739Z,61.33
2018-01-27T23:12:53.298Z,66.20
2018-01-27T23:15:20.930Z,72.67
2018-01-27T23:17:48.464Z,64.63
2018-01-27T23:20:16.061Z,61.13
2018-01-27T23:22:43.601Z,63.07
2018-01-27T23:25:11.222Z,54.07
2018-01-27T23:27:38.759Z,53.23
2018-01-27T23:30:06.376Z,52.13
2018-01-27T23:32:33.965Z,470.83
2018-01-27T23:35:01.567Z,96.53
2018-01-27T23:37:29.103Z,70.97
2018-01-27T23:39:57.457Z,108.37
2018-01-27T23:42:25.840Z,71.67
2018-01-27T23:44:53.393Z,72.00
2018-01-27T23:47:20.916Z,77.80
2018-01-27T23:49:48.494Z,71.57
2018-01-27T23:52:16.040Z,73.60
2018-01-27T23:54:43.568Z,54.27
2018-01-27T23:57:11.161Z,58.27
2018-01-27T23:59:38.973Z,54.43
